Terminal Aerodrome Forecast
Issued by NWS

Home | Current Version | Previous Version | Text Only | Print | Product List | Glossary On
Versions: 1 2 3 4 5 6 7 8 9 10 11 12 13 14
000
FTUS43 KJKL 132331
TAFSME
TAF
KSME 132331Z 1400/1424 01008KT P6SM BKN030
      TEMPO 1400/1403 SCT035
     FM140300 04003KT P6SM SKC
     FM141700 07005KT P6SM SCT200=

USA.gov is the U.S. government's official web portal to all federal, state and local government web resources and services.